sensor_id;sensor_type;location;lat;lon;timestamp;P1;durP1;ratioP1;P2;durP2;ratioP2
3068;SDS011;1545;51.728;8.796;2022-07-30T00:00:46;34.67;;;23.10;;
3068;SDS011;1545;51.728;8.796;2022-07-30T00:03:12;30.70;;;21.93;;
3068;SDS011;1545;51.728;8.796;2022-07-30T00:05:37;35.87;;;23.97;;
3068;SDS011;1545;51.728;8.796;2022-07-30T00:08:06;39.73;;;25.33;;
3068;SDS011;1545;51.728;8.796;2022-07-30T00:10:33;39.30;;;27.20;;
3068;SDS011;1545;51.728;8.796;2022-07-30T00:13:04;44.80;;;26.70;;
3068;SDS011;1545;51.728;8.796;2022-07-30T00:15:32;35.47;;;26.30;;
3068;SDS011;1545;51.728;8.796;2022-07-30T00:18:01;42.03;;;26.67;;
3068;SDS011;1545;51.728;8.796;2022-07-30T00:20:26;36.53;;;26.97;;
3068;SDS011;1545;51.728;8.796;2022-07-30T00:22:52;45.07;;;26.33;;
3068;SDS011;1545;51.728;8.796;2022-07-30T00:25:21;42.60;;;27.80;;
3068;SDS011;1545;51.728;8.796;2022-07-30T00:27:51;42.00;;;27.70;;
3068;SDS011;1545;51.728;8.796;2022-07-30T00:30:19;43.50;;;26.60;;
3068;SDS011;1545;51.728;8.796;2022-07-30T00:32:44;39.97;;;25.90;;
3068;SDS011;1545;51.728;8.796;2022-07-30T00:35:10;38.93;;;26.47;;
3068;SDS011;1545;51.728;8.796;2022-07-30T00:37:36;41.70;;;26.80;;
3068;SDS011;1545;51.728;8.796;2022-07-30T00:40:01;40.13;;;26.77;;
3068;SDS011;1545;51.728;8.796;2022-07-30T00:42:37;40.83;;;29.70;;
3068;SDS011;1545;51.728;8.796;2022-07-30T00:45:07;47.33;;;30.77;;
3068;SDS011;1545;51.728;8.796;2022-07-30T00:47:34;44.73;;;29.93;;
3068;SDS011;1545;51.728;8.796;2022-07-30T00:50:01;51.83;;;30.70;;
3068;SDS011;1545;51.728;8.796;2022-07-30T00:52:30;45.33;;;30.10;;
3068;SDS011;1545;51.728;8.796;2022-07-30T00:54:58;41.60;;;29.47;;
3068;SDS011;1545;51.728;8.796;2022-07-30T00:57:25;51.10;;;32.33;;
3068;SDS011;1545;51.728;8.796;2022-07-30T00:59:52;49.53;;;31.60;;
3068;SDS011;1545;51.728;8.796;2022-07-30T01:02:20;39.77;;;29.27;;
3068;SDS011;1545;51.728;8.796;2022-07-30T01:04:46;50.97;;;31.03;;
3068;SDS011;1545;51.728;8.796;2022-07-30T01:07:12;42.83;;;30.23;;
3068;SDS011;1545;51.728;8.796;2022-07-30T01:09:40;49.67;;;31.27;;
3068;SDS011;1545;51.728;8.796;2022-07-30T01:12:06;43.50;;;30.27;;
3068;SDS011;1545;51.728;8.796;2022-07-30T01:14:34;51.37;;;28.37;;
3068;SDS011;1545;51.728;8.796;2022-07-30T01:17:00;43.67;;;30.07;;
3068;SDS011;1545;51.728;8.796;2022-07-30T01:19:30;43.50;;;29.80;;
3068;SDS011;1545;51.728;8.796;2022-07-30T01:27:37;46.60;;;31.53;;
3068;SDS011;1545;51.728;8.796;2022-07-30T01:30:10;52.73;;;31.97;;
3068;SDS011;1545;51.728;8.796;2022-07-30T01:32:40;45.37;;;31.47;;
3068;SDS011;1545;51.728;8.796;2022-07-30T01:35:08;39.00;;;28.03;;
3068;SDS011;1545;51.728;8.796;2022-07-30T01:37:35;47.10;;;29.23;;
3068;SDS011;1545;51.728;8.796;2022-07-30T01:40:03;43.23;;;29.23;;
3068;SDS011;1545;51.728;8.796;2022-07-30T01:42:29;41.97;;;29.13;;
3068;SDS011;1545;51.728;8.796;2022-07-30T01:44:59;39.77;;;27.43;;
3068;SDS011;1545;51.728;8.796;2022-07-30T01:47:26;55.40;;;29.03;;
3068;SDS011;1545;51.728;8.796;2022-07-30T01:49:55;44.97;;;28.10;;
3068;SDS011;1545;51.728;8.796;2022-07-30T01:52:23;41.43;;;28.17;;
3068;SDS011;1545;51.728;8.796;2022-07-30T01:54:55;48.43;;;28.77;;
3068;SDS011;1545;51.728;8.796;2022-07-30T01:57:22;46.50;;;28.33;;
3068;SDS011;1545;51.728;8.796;2022-07-30T01:59:50;48.97;;;27.97;;
3068;SDS011;1545;51.728;8.796;2022-07-30T02:02:18;42.20;;;29.80;;
3068;SDS011;1545;51.728;8.796;2022-07-30T02:04:44;52.03;;;30.17;;
3068;SDS011;1545;51.728;8.796;2022-07-30T02:07:15;42.87;;;30.97;;
3068;SDS011;1545;51.728;8.796;2022-07-30T02:09:47;54.03;;;31.17;;
3068;SDS011;1545;51.728;8.796;2022-07-30T02:12:29;48.90;;;30.93;;
3068;SDS011;1545;51.728;8.796;2022-07-30T02:17:53;48.27;;;32.83;;
3068;SDS011;1545;51.728;8.796;2022-07-30T02:20:25;56.73;;;31.80;;
3068;SDS011;1545;51.728;8.796;2022-07-30T02:22:54;52.23;;;27.13;;
3068;SDS011;1545;51.728;8.796;2022-07-30T02:25:23;43.73;;;25.97;;
3068;SDS011;1545;51.728;8.796;2022-07-30T02:27:51;42.57;;;25.50;;
3068;SDS011;1545;51.728;8.796;2022-07-30T02:30:22;42.50;;;24.53;;
3068;SDS011;1545;51.728;8.796;2022-07-30T02:32:51;41.33;;;27.20;;
3068;SDS011;1545;51.728;8.796;2022-07-30T02:35:26;48.00;;;27.63;;
3068;SDS011;1545;51.728;8.796;2022-07-30T02:38:00;42.37;;;26.00;;
3068;SDS011;1545;51.728;8.796;2022-07-30T02:40:29;36.17;;;24.33;;
3068;SDS011;1545;51.728;8.796;2022-07-30T02:42:55;39.90;;;25.37;;
3068;SDS011;1545;51.728;8.796;2022-07-30T02:45:23;40.20;;;25.90;;
3068;SDS011;1545;51.728;8.796;2022-07-30T02:48:00;42.57;;;26.30;;
3068;SDS011;1545;51.728;8.796;2022-07-30T02:50:30;38.17;;;26.97;;
3068;SDS011;1545;51.728;8.796;2022-07-30T02:52:57;40.30;;;26.33;;
3068;SDS011;1545;51.728;8.796;2022-07-30T02:55:25;47.87;;;27.70;;
3068;SDS011;1545;51.728;8.796;2022-07-30T02:57:52;41.63;;;27.80;;
3068;SDS011;1545;51.728;8.796;2022-07-30T03:00:20;40.00;;;26.00;;
3068;SDS011;1545;51.728;8.796;2022-07-30T03:02:46;39.83;;;26.50;;
3068;SDS011;1545;51.728;8.796;2022-07-30T03:05:13;41.87;;;27.37;;
3068;SDS011;1545;51.728;8.796;2022-07-30T03:07:41;41.47;;;26.63;;
3068;SDS011;1545;51.728;8.796;2022-07-30T03:10:10;40.17;;;26.33;;
3068;SDS011;1545;51.728;8.796;2022-07-30T03:12:40;35.43;;;24.50;;
3068;SDS011;1545;51.728;8.796;2022-07-30T03:15:10;41.60;;;25.17;;
3068;SDS011;1545;51.728;8.796;2022-07-30T03:17:42;33.47;;;24.83;;
3068;SDS011;1545;51.728;8.796;2022-07-30T03:20:11;37.50;;;24.77;;
3068;SDS011;1545;51.728;8.796;2022-07-30T03:22:42;46.70;;;24.17;;
3068;SDS011;1545;51.728;8.796;2022-07-30T03:25:13;34.37;;;24.20;;
3068;SDS011;1545;51.728;8.796;2022-07-30T03:27:44;34.17;;;22.57;;
3068;SDS011;1545;51.728;8.796;2022-07-30T03:30:11;33.33;;;22.20;;
3068;SDS011;1545;51.728;8.796;2022-07-30T03:32:37;39.57;;;21.90;;
3068;SDS011;1545;51.728;8.796;2022-07-30T03:35:05;35.10;;;22.83;;
3068;SDS011;1545;51.728;8.796;2022-07-30T03:37:38;33.47;;;21.77;;
3068;SDS011;1545;51.728;8.796;2022-07-30T03:40:04;36.00;;;22.87;;
3068;SDS011;1545;51.728;8.796;2022-07-30T03:42:33;32.87;;;22.30;;
3068;SDS011;1545;51.728;8.796;2022-07-30T03:45:00;27.83;;;20.23;;
3068;SDS011;1545;51.728;8.796;2022-07-30T03:47:30;34.87;;;22.73;;
3068;SDS011;1545;51.728;8.796;2022-07-30T03:49:57;34.80;;;22.33;;
3068;SDS011;1545;51.728;8.796;2022-07-30T03:52:26;31.33;;;21.03;;
3068;SDS011;1545;51.728;8.796;2022-07-30T03:54:52;42.43;;;21.53;;
3068;SDS011;1545;51.728;8.796;2022-07-30T03:57:18;30.73;;;21.27;;
3068;SDS011;1545;51.728;8.796;2022-07-30T03:59:44;32.17;;;20.57;;
3068;SDS011;1545;51.728;8.796;2022-07-30T04:02:11;34.07;;;20.13;;
3068;SDS011;1545;51.728;8.796;2022-07-30T04:04:40;34.77;;;20.37;;
3068;SDS011;1545;51.728;8.796;2022-07-30T04:07:09;28.93;;;20.60;;
3068;SDS011;1545;51.728;8.796;2022-07-30T04:09:37;33.27;;;21.60;;
3068;SDS011;1545;51.728;8.796;2022-07-30T04:12:03;36.23;;;20.70;;
3068;SDS011;1545;51.728;8.796;2022-07-30T04:14:41;31.13;;;20.53;;
3068;SDS011;1545;51.728;8.796;2022-07-30T04:17:15;33.33;;;19.57;;
3068;SDS011;1545;51.728;8.796;2022-07-30T04:19:47;30.83;;;19.47;;
3068;SDS011;1545;51.728;8.796;2022-07-30T04:22:17;36.00;;;20.60;;
3068;SDS011;1545;51.728;8.796;2022-07-30T04:24:47;34.30;;;20.80;;
3068;SDS011;1545;51.728;8.796;2022-07-30T04:27:13;42.60;;;21.67;;
3068;SDS011;1545;51.728;8.796;2022-07-30T04:29:41;33.03;;;22.17;;
3068;SDS011;1545;51.728;8.796;2022-07-30T04:32:07;43.30;;;22.20;;
3068;SDS011;1545;51.728;8.796;2022-07-30T04:34:36;36.10;;;20.53;;
3068;SDS011;1545;51.728;8.796;2022-07-30T04:37:17;36.87;;;21.40;;
3068;SDS011;1545;51.728;8.796;2022-07-30T04:39:45;31.93;;;21.03;;
3068;SDS011;1545;51.728;8.796;2022-07-30T04:42:14;28.73;;;20.07;;
3068;SDS011;1545;51.728;8.796;2022-07-30T04:44:40;33.70;;;20.60;;
3068;SDS011;1545;51.728;8.796;2022-07-30T04:47:07;30.13;;;19.73;;
3068;SDS011;1545;51.728;8.796;2022-07-30T04:49:39;30.13;;;20.20;;
3068;SDS011;1545;51.728;8.796;2022-07-30T04:52:06;32.37;;;20.30;;
3068;SDS011;1545;51.728;8.796;2022-07-30T04:54:37;36.30;;;19.97;;
3068;SDS011;1545;51.728;8.796;2022-07-30T04:57:08;31.13;;;19.73;;
3068;SDS011;1545;51.728;8.796;2022-07-30T04:59:35;37.43;;;20.70;;
3068;SDS011;1545;51.728;8.796;2022-07-30T05:02:01;35.87;;;19.00;;
3068;SDS011;1545;51.728;8.796;2022-07-30T05:04:28;32.47;;;19.43;;
3068;SDS011;1545;51.728;8.796;2022-07-30T05:06:57;30.73;;;18.67;;
3068;SDS011;1545;51.728;8.796;2022-07-30T05:09:24;41.07;;;18.83;;
3068;SDS011;1545;51.728;8.796;2022-07-30T05:11:50;32.17;;;18.50;;
3068;SDS011;1545;51.728;8.796;2022-07-30T05:14:17;29.07;;;18.63;;
3068;SDS011;1545;51.728;8.796;2022-07-30T05:16:43;32.40;;;18.37;;
3068;SDS011;1545;51.728;8.796;2022-07-30T05:19:08;33.60;;;19.77;;
3068;SDS011;1545;51.728;8.796;2022-07-30T05:21:34;35.17;;;18.53;;
3068;SDS011;1545;51.728;8.796;2022-07-30T05:23:59;30.33;;;18.47;;
3068;SDS011;1545;51.728;8.796;2022-07-30T05:26:25;30.17;;;18.37;;
3068;SDS011;1545;51.728;8.796;2022-07-30T05:28:50;27.80;;;18.83;;
3068;SDS011;1545;51.728;8.796;2022-07-30T05:31:16;26.80;;;17.70;;
3068;SDS011;1545;51.728;8.796;2022-07-30T05:33:42;35.93;;;18.50;;
3068;SDS011;1545;51.728;8.796;2022-07-30T05:36:10;26.20;;;17.83;;
3068;SDS011;1545;51.728;8.796;2022-07-30T05:38:36;26.57;;;18.60;;
3068;SDS011;1545;51.728;8.796;2022-07-30T05:41:02;34.20;;;18.20;;
3068;SDS011;1545;51.728;8.796;2022-07-30T05:43:31;32.90;;;17.57;;
3068;SDS011;1545;51.728;8.796;2022-07-30T05:45:58;26.63;;;16.60;;
3068;SDS011;1545;51.728;8.796;2022-07-30T05:48:24;24.73;;;16.70;;
3068;SDS011;1545;51.728;8.796;2022-07-30T05:50:50;29.30;;;16.20;;
3068;SDS011;1545;51.728;8.796;2022-07-30T05:53:16;26.10;;;16.20;;
3068;SDS011;1545;51.728;8.796;2022-07-30T05:55:41;26.73;;;15.67;;
3068;SDS011;1545;51.728;8.796;2022-07-30T05:58:07;31.60;;;15.83;;
3068;SDS011;1545;51.728;8.796;2022-07-30T06:00:33;27.13;;;15.07;;
3068;SDS011;1545;51.728;8.796;2022-07-30T06:02:59;22.63;;;14.63;;
3068;SDS011;1545;51.728;8.796;2022-07-30T06:05:25;26.47;;;15.03;;
3068;SDS011;1545;51.728;8.796;2022-07-30T06:07:52;23.47;;;14.23;;
3068;SDS011;1545;51.728;8.796;2022-07-30T06:10:18;36.73;;;14.57;;
3068;SDS011;1545;51.728;8.796;2022-07-30T06:12:43;26.13;;;14.47;;
3068;SDS011;1545;51.728;8.796;2022-07-30T06:15:09;24.93;;;13.87;;
3068;SDS011;1545;51.728;8.796;2022-07-30T06:17:42;29.10;;;13.17;;
3068;SDS011;1545;51.728;8.796;2022-07-30T06:20:12;27.70;;;14.10;;
3068;SDS011;1545;51.728;8.796;2022-07-30T06:22:39;27.80;;;13.30;;
3068;SDS011;1545;51.728;8.796;2022-07-30T06:25:05;19.73;;;12.40;;
3068;SDS011;1545;51.728;8.796;2022-07-30T06:27:31;18.33;;;11.37;;
3068;SDS011;1545;51.728;8.796;2022-07-30T06:29:58;19.80;;;12.73;;
3068;SDS011;1545;51.728;8.796;2022-07-30T06:32:24;22.70;;;13.27;;
3068;SDS011;1545;51.728;8.796;2022-07-30T06:34:50;27.07;;;12.33;;
3068;SDS011;1545;51.728;8.796;2022-07-30T06:37:15;23.97;;;12.90;;
3068;SDS011;1545;51.728;8.796;2022-07-30T06:39:41;19.20;;;12.90;;
3068;SDS011;1545;51.728;8.796;2022-07-30T06:42:06;21.93;;;12.60;;
3068;SDS011;1545;51.728;8.796;2022-07-30T06:44:32;24.60;;;13.40;;
3068;SDS011;1545;51.728;8.796;2022-07-30T06:46:58;19.27;;;12.30;;
3068;SDS011;1545;51.728;8.796;2022-07-30T06:49:23;19.73;;;13.60;;
3068;SDS011;1545;51.728;8.796;2022-07-30T06:51:49;32.80;;;15.43;;
3068;SDS011;1545;51.728;8.796;2022-07-30T06:54:15;27.03;;;14.83;;
3068;SDS011;1545;51.728;8.796;2022-07-30T06:56:41;23.43;;;14.53;;
3068;SDS011;1545;51.728;8.796;2022-07-30T06:59:06;20.63;;;14.03;;
3068;SDS011;1545;51.728;8.796;2022-07-30T07:01:32;22.70;;;13.67;;
3068;SDS011;1545;51.728;8.796;2022-07-30T07:03:57;22.80;;;13.47;;
3068;SDS011;1545;51.728;8.796;2022-07-30T07:06:23;22.80;;;13.20;;
3068;SDS011;1545;51.728;8.796;2022-07-30T07:08:48;26.83;;;13.63;;
3068;SDS011;1545;51.728;8.796;2022-07-30T07:11:14;20.63;;;12.97;;
3068;SDS011;1545;51.728;8.796;2022-07-30T07:13:39;24.43;;;12.63;;
3068;SDS011;1545;51.728;8.796;2022-07-30T07:16:05;18.97;;;13.50;;
3068;SDS011;1545;51.728;8.796;2022-07-30T07:18:30;27.03;;;13.27;;
3068;SDS011;1545;51.728;8.796;2022-07-30T07:20:56;27.30;;;13.30;;
3068;SDS011;1545;51.728;8.796;2022-07-30T07:23:22;21.83;;;12.85;;
3068;SDS011;1545;51.728;8.796;2022-07-30T07:25:47;26.45;;;13.32;;
3068;SDS011;1545;51.728;8.796;2022-07-30T07:28:13;21.63;;;12.27;;
3068;SDS011;1545;51.728;8.796;2022-07-30T07:30:42;18.90;;;12.65;;
3068;SDS011;1545;51.728;8.796;2022-07-30T07:33:08;15.85;;;11.65;;
3068;SDS011;1545;51.728;8.796;2022-07-30T07:35:33;23.70;;;12.02;;
3068;SDS011;1545;51.728;8.796;2022-07-30T07:37:59;22.45;;;10.70;;
3068;SDS011;1545;51.728;8.796;2022-07-30T07:40:25;26.88;;;11.90;;
3068;SDS011;1545;51.728;8.796;2022-07-30T07:42:50;20.92;;;11.10;;
3068;SDS011;1545;51.728;8.796;2022-07-30T07:45:16;24.60;;;10.68;;
3068;SDS011;1545;51.728;8.796;2022-07-30T07:47:45;22.30;;;12.27;;
3068;SDS011;1545;51.728;8.796;2022-07-30T07:50:12;19.42;;;10.70;;
3068;SDS011;1545;51.728;8.796;2022-07-30T07:52:39;17.77;;;11.80;;
3068;SDS011;1545;51.728;8.796;2022-07-30T07:55:05;22.85;;;10.32;;
3068;SDS011;1545;51.728;8.796;2022-07-30T07:57:37;30.08;;;11.93;;
3068;SDS011;1545;51.728;8.796;2022-07-30T08:00:04;19.05;;;11.63;;
3068;SDS011;1545;51.728;8.796;2022-07-30T08:02:30;17.75;;;11.38;;
3068;SDS011;1545;51.728;8.796;2022-07-30T08:04:55;14.43;;;11.00;;
3068;SDS011;1545;51.728;8.796;2022-07-30T08:07:21;25.58;;;11.73;;
3068;SDS011;1545;51.728;8.796;2022-07-30T08:09:46;16.23;;;10.73;;
3068;SDS011;1545;51.728;8.796;2022-07-30T08:12:12;27.88;;;10.13;;
3068;SDS011;1545;51.728;8.796;2022-07-30T08:14:38;26.08;;;10.88;;
3068;SDS011;1545;51.728;8.796;2022-07-30T08:17:03;15.32;;;10.77;;
3068;SDS011;1545;51.728;8.796;2022-07-30T08:19:29;18.48;;;10.48;;
3068;SDS011;1545;51.728;8.796;2022-07-30T08:21:54;21.95;;;11.63;;
3068;SDS011;1545;51.728;8.796;2022-07-30T08:24:23;18.00;;;11.32;;
3068;SDS011;1545;51.728;8.796;2022-07-30T08:26:49;30.40;;;12.52;;
3068;SDS011;1545;51.728;8.796;2022-07-30T08:29:14;19.75;;;12.60;;
3068;SDS011;1545;51.728;8.796;2022-07-30T08:31:40;20.70;;;12.63;;
3068;SDS011;1545;51.728;8.796;2022-07-30T08:34:07;21.95;;;13.10;;
3068;SDS011;1545;51.728;8.796;2022-07-30T08:36:32;21.88;;;12.63;;
3068;SDS011;1545;51.728;8.796;2022-07-30T08:38:58;21.85;;;12.00;;
3068;SDS011;1545;51.728;8.796;2022-07-30T08:41:23;19.08;;;12.30;;
3068;SDS011;1545;51.728;8.796;2022-07-30T08:43:50;17.58;;;12.55;;
3068;SDS011;1545;51.728;8.796;2022-07-30T08:46:19;23.73;;;12.38;;
3068;SDS011;1545;51.728;8.796;2022-07-30T08:48:48;19.20;;;11.27;;
3068;SDS011;1545;51.728;8.796;2022-07-30T08:51:16;20.58;;;12.55;;
3068;SDS011;1545;51.728;8.796;2022-07-30T08:53:46;22.15;;;11.70;;
3068;SDS011;1545;51.728;8.796;2022-07-30T08:56:12;16.85;;;12.60;;
3068;SDS011;1545;51.728;8.796;2022-07-30T08:58:38;18.23;;;11.13;;
3068;SDS011;1545;51.728;8.796;2022-07-30T09:01:04;18.92;;;11.35;;
3068;SDS011;1545;51.728;8.796;2022-07-30T09:03:30;22.17;;;11.40;;
3068;SDS011;1545;51.728;8.796;2022-07-30T09:05:56;18.55;;;12.25;;
3068;SDS011;1545;51.728;8.796;2022-07-30T09:08:22;15.93;;;11.73;;
3068;SDS011;1545;51.728;8.796;2022-07-30T09:10:48;21.77;;;12.18;;
3068;SDS011;1545;51.728;8.796;2022-07-30T09:13:29;15.93;;;11.65;;
3068;SDS011;1545;51.728;8.796;2022-07-30T09:15:58;17.70;;;12.07;;
3068;SDS011;1545;51.728;8.796;2022-07-30T09:18:27;19.83;;;11.80;;
3068;SDS011;1545;51.728;8.796;2022-07-30T09:20:55;13.57;;;10.07;;
3068;SDS011;1545;51.728;8.796;2022-07-30T09:23:22;21.80;;;11.70;;
3068;SDS011;1545;51.728;8.796;2022-07-30T09:25:48;22.95;;;11.52;;
3068;SDS011;1545;51.728;8.796;2022-07-30T09:28:14;18.83;;;10.93;;
3068;SDS011;1545;51.728;8.796;2022-07-30T09:30:44;18.50;;;10.40;;
3068;SDS011;1545;51.728;8.796;2022-07-30T09:33:14;21.25;;;11.73;;
3068;SDS011;1545;51.728;8.796;2022-07-30T09:35:41;19.48;;;12.30;;
3068;SDS011;1545;51.728;8.796;2022-07-30T09:38:07;24.85;;;11.90;;
3068;SDS011;1545;51.728;8.796;2022-07-30T09:40:34;20.15;;;11.70;;
3068;SDS011;1545;51.728;8.796;2022-07-30T09:43:07;19.23;;;12.25;;
3068;SDS011;1545;51.728;8.796;2022-07-30T09:45:34;18.90;;;11.75;;
3068;SDS011;1545;51.728;8.796;2022-07-30T09:48:01;20.95;;;13.32;;
3068;SDS011;1545;51.728;8.796;2022-07-30T09:50:27;16.55;;;12.25;;
3068;SDS011;1545;51.728;8.796;2022-07-30T09:52:53;21.15;;;12.77;;
3068;SDS011;1545;51.728;8.796;2022-07-30T09:55:27;23.50;;;14.90;;
3068;SDS011;1545;51.728;8.796;2022-07-30T09:57:56;17.55;;;13.90;;
3068;SDS011;1545;51.728;8.796;2022-07-30T10:00:24;28.27;;;12.43;;
3068;SDS011;1545;51.728;8.796;2022-07-30T10:02:51;20.98;;;13.13;;
3068;SDS011;1545;51.728;8.796;2022-07-30T10:05:18;22.00;;;12.13;;
3068;SDS011;1545;51.728;8.796;2022-07-30T10:07:56;19.55;;;10.10;;
3068;SDS011;1545;51.728;8.796;2022-07-30T10:10:27;22.83;;;9.43;;
3068;SDS011;1545;51.728;8.796;2022-07-30T10:12:56;16.13;;;9.60;;
3068;SDS011;1545;51.728;8.796;2022-07-30T10:15:24;13.17;;;8.93;;
3068;SDS011;1545;51.728;8.796;2022-07-30T10:17:53;16.77;;;9.63;;
3068;SDS011;1545;51.728;8.796;2022-07-30T10:20:19;17.43;;;9.43;;
3068;SDS011;1545;51.728;8.796;2022-07-30T10:22:45;13.67;;;9.00;;
3068;SDS011;1545;51.728;8.796;2022-07-30T10:25:11;19.77;;;9.03;;
3068;SDS011;1545;51.728;8.796;2022-07-30T10:27:37;14.73;;;8.50;;
3068;SDS011;1545;51.728;8.796;2022-07-30T10:30:03;22.37;;;9.87;;
3068;SDS011;1545;51.728;8.796;2022-07-30T10:32:30;15.23;;;9.63;;
3068;SDS011;1545;51.728;8.796;2022-07-30T10:34:56;20.00;;;10.33;;
3068;SDS011;1545;51.728;8.796;2022-07-30T10:37:23;17.17;;;10.70;;
3068;SDS011;1545;51.728;8.796;2022-07-30T10:39:52;18.57;;;11.60;;
3068;SDS011;1545;51.728;8.796;2022-07-30T10:43:00;18.80;;;10.67;;
3068;SDS011;1545;51.728;8.796;2022-07-30T10:46:01;20.33;;;11.00;;
3068;SDS011;1545;51.728;8.796;2022-07-30T10:48:35;20.00;;;12.93;;
3068;SDS011;1545;51.728;8.796;2022-07-30T10:51:00;18.33;;;12.47;;
3068;SDS011;1545;51.728;8.796;2022-07-30T10:53:33;19.20;;;11.97;;
3068;SDS011;1545;51.728;8.796;2022-07-30T10:56:10;22.93;;;12.90;;
3068;SDS011;1545;51.728;8.796;2022-07-30T10:58:59;19.23;;;12.27;;
3068;SDS011;1545;51.728;8.796;2022-07-30T11:02:06;20.93;;;11.77;;
3068;SDS011;1545;51.728;8.796;2022-07-30T11:04:24;23.90;;;10.67;;
3068;SDS011;1545;51.728;8.796;2022-07-30T11:06:51;27.97;;;11.77;;
3068;SDS011;1545;51.728;8.796;2022-07-30T11:09:38;15.97;;;9.13;;
3068;SDS011;1545;51.728;8.796;2022-07-30T11:12:05;21.60;;;11.87;;
3068;SDS011;1545;51.728;8.796;2022-07-30T11:17:13;18.40;;;12.27;;
3068;SDS011;1545;51.728;8.796;2022-07-30T11:22:39;21.07;;;10.30;;
3068;SDS011;1545;51.728;8.796;2022-07-30T11:25:09;23.80;;;10.57;;
3068;SDS011;1545;51.728;8.796;2022-07-30T11:27:56;20.43;;;9.50;;
3068;SDS011;1545;51.728;8.796;2022-07-30T11:32:53;18.07;;;7.10;;
3068;SDS011;1545;51.728;8.796;2022-07-30T11:35:24;20.17;;;8.77;;
3068;SDS011;1545;51.728;8.796;2022-07-30T11:40:27;14.87;;;9.43;;
3068;SDS011;1545;51.728;8.796;2022-07-30T11:45:44;22.30;;;11.07;;
3068;SDS011;1545;51.728;8.796;2022-07-30T11:48:14;30.73;;;9.10;;
3068;SDS011;1545;51.728;8.796;2022-07-30T11:50:42;23.13;;;9.17;;
3068;SDS011;1545;51.728;8.796;2022-07-30T11:53:18;13.67;;;8.10;;
3068;SDS011;1545;51.728;8.796;2022-07-30T11:55:55;17.13;;;8.87;;
3068;SDS011;1545;51.728;8.796;2022-07-30T11:58:31;13.60;;;8.00;;
3068;SDS011;1545;51.728;8.796;2022-07-30T12:01:06;24.60;;;9.13;;
3068;SDS011;1545;51.728;8.796;2022-07-30T12:03:41;16.80;;;8.77;;
3068;SDS011;1545;51.728;8.796;2022-07-30T12:06:09;18.33;;;8.30;;
3068;SDS011;1545;51.728;8.796;2022-07-30T12:08:42;14.63;;;7.80;;
3068;SDS011;1545;51.728;8.796;2022-07-30T12:11:10;11.23;;;7.20;;
3068;SDS011;1545;51.728;8.796;2022-07-30T12:13:37;11.20;;;6.87;;
3068;SDS011;1545;51.728;8.796;2022-07-30T12:16:10;16.40;;;8.00;;
3068;SDS011;1545;51.728;8.796;2022-07-30T12:18:37;12.80;;;7.43;;
3068;SDS011;1545;51.728;8.796;2022-07-30T12:21:03;11.90;;;6.93;;
3068;SDS011;1545;51.728;8.796;2022-07-30T12:23:35;16.77;;;7.73;;
3068;SDS011;1545;51.728;8.796;2022-07-30T12:26:01;10.67;;;6.80;;
3068;SDS011;1545;51.728;8.796;2022-07-30T12:28:28;12.57;;;7.10;;
3068;SDS011;1545;51.728;8.796;2022-07-30T12:30:55;12.80;;;7.47;;
3068;SDS011;1545;51.728;8.796;2022-07-30T12:33:21;12.37;;;6.97;;
3068;SDS011;1545;51.728;8.796;2022-07-30T12:35:51;14.23;;;7.30;;
3068;SDS011;1545;51.728;8.796;2022-07-30T12:38:19;21.27;;;7.93;;
3068;SDS011;1545;51.728;8.796;2022-07-30T12:40:49;13.37;;;7.63;;
3068;SDS011;1545;51.728;8.796;2022-07-30T12:43:15;17.77;;;7.20;;
3068;SDS011;1545;51.728;8.796;2022-07-30T12:45:41;17.60;;;7.10;;
3068;SDS011;1545;51.728;8.796;2022-07-30T12:48:10;14.23;;;7.57;;
3068;SDS011;1545;51.728;8.796;2022-07-30T12:50:36;14.03;;;7.33;;
3068;SDS011;1545;51.728;8.796;2022-07-30T12:53:02;15.87;;;7.83;;
3068;SDS011;1545;51.728;8.796;2022-07-30T12:55:31;14.67;;;8.17;;
3068;SDS011;1545;51.728;8.796;2022-07-30T12:57:58;13.87;;;8.10;;
3068;SDS011;1545;51.728;8.796;2022-07-30T13:02:56;9.17;;;6.60;;
3068;SDS011;1545;51.728;8.796;2022-07-30T13:08:10;11.90;;;7.30;;
3068;SDS011;1545;51.728;8.796;2022-07-30T13:10:35;14.03;;;6.67;;
3068;SDS011;1545;51.728;8.796;2022-07-30T13:13:01;30.40;;;7.50;;
3068;SDS011;1545;51.728;8.796;2022-07-30T13:15:27;11.80;;;7.57;;
3068;SDS011;1545;51.728;8.796;2022-07-30T13:17:53;11.63;;;7.60;;
3068;SDS011;1545;51.728;8.796;2022-07-30T13:20:19;18.70;;;7.57;;
3068;SDS011;1545;51.728;8.796;2022-07-30T13:22:45;12.53;;;7.10;;
3068;SDS011;1545;51.728;8.796;2022-07-30T13:25:10;13.27;;;6.40;;
3068;SDS011;1545;51.728;8.796;2022-07-30T13:27:37;13.13;;;7.40;;
3068;SDS011;1545;51.728;8.796;2022-07-30T13:30:03;13.60;;;6.87;;
3068;SDS011;1545;51.728;8.796;2022-07-30T13:32:29;14.57;;;7.03;;
3068;SDS011;1545;51.728;8.796;2022-07-30T13:34:55;11.73;;;7.27;;
3068;SDS011;1545;51.728;8.796;2022-07-30T13:37:21;9.77;;;7.10;;
3068;SDS011;1545;51.728;8.796;2022-07-30T13:39:46;10.13;;;6.97;;
3068;SDS011;1545;51.728;8.796;2022-07-30T13:42:12;13.27;;;7.17;;
3068;SDS011;1545;51.728;8.796;2022-07-30T13:44:38;15.60;;;7.33;;
3068;SDS011;1545;51.728;8.796;2022-07-30T13:47:04;13.17;;;7.67;;
3068;SDS011;1545;51.728;8.796;2022-07-30T13:49:31;15.27;;;6.70;;
3068;SDS011;1545;51.728;8.796;2022-07-30T13:51:59;11.03;;;7.00;;
3068;SDS011;1545;51.728;8.796;2022-07-30T13:54:24;13.10;;;7.13;;
3068;SDS011;1545;51.728;8.796;2022-07-30T13:56:50;22.00;;;7.00;;
3068;SDS011;1545;51.728;8.796;2022-07-30T13:59:15;11.93;;;6.90;;
3068;SDS011;1545;51.728;8.796;2022-07-30T14:01:41;12.80;;;6.70;;
3068;SDS011;1545;51.728;8.796;2022-07-30T14:04:06;13.63;;;7.20;;
3068;SDS011;1545;51.728;8.796;2022-07-30T14:06:32;12.47;;;6.70;;
3068;SDS011;1545;51.728;8.796;2022-07-30T14:08:58;8.90;;;6.20;;
3068;SDS011;1545;51.728;8.796;2022-07-30T14:11:23;14.00;;;7.00;;
3068;SDS011;1545;51.728;8.796;2022-07-30T14:13:49;12.83;;;6.30;;
3068;SDS011;1545;51.728;8.796;2022-07-30T14:16:14;12.43;;;6.30;;
3068;SDS011;1545;51.728;8.796;2022-07-30T14:18:40;15.00;;;6.83;;
3068;SDS011;1545;51.728;8.796;2022-07-30T14:21:06;11.70;;;6.13;;
3068;SDS011;1545;51.728;8.796;2022-07-30T14:23:31;17.87;;;6.07;;
3068;SDS011;1545;51.728;8.796;2022-07-30T14:25:57;17.47;;;6.10;;
3068;SDS011;1545;51.728;8.796;2022-07-30T14:28:23;9.67;;;6.27;;
3068;SDS011;1545;51.728;8.796;2022-07-30T14:30:49;9.67;;;5.50;;
3068;SDS011;1545;51.728;8.796;2022-07-30T14:33:14;11.20;;;5.80;;
3068;SDS011;1545;51.728;8.796;2022-07-30T14:35:41;10.60;;;5.60;;
3068;SDS011;1545;51.728;8.796;2022-07-30T14:38:06;13.73;;;6.32;;
3068;SDS011;1545;51.728;8.796;2022-07-30T14:40:32;13.67;;;5.57;;
3068;SDS011;1545;51.728;8.796;2022-07-30T14:42:57;9.93;;;5.47;;
3068;SDS011;1545;51.728;8.796;2022-07-30T14:45:23;12.80;;;6.33;;
3068;SDS011;1545;51.728;8.796;2022-07-30T14:47:49;12.13;;;6.10;;
3068;SDS011;1545;51.728;8.796;2022-07-30T14:50:14;7.70;;;5.07;;
3068;SDS011;1545;51.728;8.796;2022-07-30T14:52:40;8.67;;;5.00;;
3068;SDS011;1545;51.728;8.796;2022-07-30T14:55:06;8.83;;;4.63;;
3068;SDS011;1545;51.728;8.796;2022-07-30T14:57:32;9.57;;;5.70;;
3068;SDS011;1545;51.728;8.796;2022-07-30T14:59:58;10.27;;;5.33;;
3068;SDS011;1545;51.728;8.796;2022-07-30T15:02:24;8.13;;;5.07;;
3068;SDS011;1545;51.728;8.796;2022-07-30T15:04:49;10.23;;;5.77;;
3068;SDS011;1545;51.728;8.796;2022-07-30T15:07:15;14.10;;;6.07;;
3068;SDS011;1545;51.728;8.796;2022-07-30T15:09:40;8.17;;;5.43;;
3068;SDS011;1545;51.728;8.796;2022-07-30T15:12:06;7.00;;;5.33;;
3068;SDS011;1545;51.728;8.796;2022-07-30T15:14:34;9.10;;;5.10;;
3068;SDS011;1545;51.728;8.796;2022-07-30T15:17:00;14.70;;;4.90;;
3068;SDS011;1545;51.728;8.796;2022-07-30T15:19:26;8.03;;;5.20;;
3068;SDS011;1545;51.728;8.796;2022-07-30T15:21:51;8.43;;;5.17;;
3068;SDS011;1545;51.728;8.796;2022-07-30T15:24:17;17.37;;;5.63;;